sensor_id;sensor_type;location;lat;lon;timestamp;temperature;humidity
17346;DHT22;8790;53.590;10.002;2022-12-18T00:01:46;-1.90;99.90
17346;DHT22;8790;53.590;10.002;2022-12-18T00:04:21;-1.90;99.90
17346;DHT22;8790;53.590;10.002;2022-12-18T00:06:53;-1.90;99.90
17346;DHT22;8790;53.590;10.002;2022-12-18T00:09:26;-1.90;99.90
17346;DHT22;8790;53.590;10.002;2022-12-18T00:11:58;-1.90;99.90
17346;DHT22;8790;53.590;10.002;2022-12-18T00:14:30;-1.90;99.90
17346;DHT22;8790;53.590;10.002;2022-12-18T00:17:02;-1.90;99.90
17346;DHT22;8790;53.590;10.002;2022-12-18T00:19:34;-1.90;99.90
17346;DHT22;8790;53.590;10.002;2022-12-18T00:22:06;-2.00;99.90
17346;DHT22;8790;53.590;10.002;2022-12-18T00:24:39;-2.00;99.90
17346;DHT22;8790;53.590;10.002;2022-12-18T00:27:11;-2.10;99.90
17346;DHT22;8790;53.590;10.002;2022-12-18T00:29:43;-2.10;99.90
17346;DHT22;8790;53.590;10.002;2022-12-18T00:32:14;-2.10;99.90
17346;DHT22;8790;53.590;10.002;2022-12-18T00:34:46;-2.10;99.90
17346;DHT22;8790;53.590;10.002;2022-12-18T00:37:19;-2.10;99.90
17346;DHT22;8790;53.590;10.002;2022-12-18T00:39:56;-2.20;99.90
17346;DHT22;8790;53.590;10.002;2022-12-18T00:42:28;-2.20;99.90
17346;DHT22;8790;53.590;10.002;2022-12-18T00:45:17;-2.20;99.90
17346;DHT22;8790;53.590;10.002;2022-12-18T00:47:50;-2.20;99.90
17346;DHT22;8790;53.590;10.002;2022-12-18T00:50:24;-2.20;99.90
17346;DHT22;8790;53.590;10.002;2022-12-18T00:52:56;-2.20;99.90
17346;DHT22;8790;53.590;10.002;2022-12-18T00:55:29;-2.20;99.90
17346;DHT22;8790;53.590;10.002;2022-12-18T00:58:01;-2.20;99.90
17346;DHT22;8790;53.590;10.002;2022-12-18T01:00:32;-2.20;99.90
17346;DHT22;8790;53.590;10.002;2022-12-18T01:03:05;-2.20;99.90
17346;DHT22;8790;53.590;10.002;2022-12-18T01:05:39;-2.20;99.90
17346;DHT22;8790;53.590;10.002;2022-12-18T01:08:11;-2.10;99.90
17346;DHT22;8790;53.590;10.002;2022-12-18T01:10:44;-2.20;99.90
17346;DHT22;8790;53.590;10.002;2022-12-18T01:13:15;-2.20;99.90
17346;DHT22;8790;53.590;10.002;2022-12-18T01:15:48;-2.10;99.90
17346;DHT22;8790;53.590;10.002;2022-12-18T01:18:21;-2.10;99.90
17346;DHT22;8790;53.590;10.002;2022-12-18T01:20:55;-2.10;99.90
17346;DHT22;8790;53.590;10.002;2022-12-18T01:23:27;-2.20;99.90
17346;DHT22;8790;53.590;10.002;2022-12-18T01:26:04;-2.20;99.90
17346;DHT22;8790;53.590;10.002;2022-12-18T01:28:36;-2.20;99.90
17346;DHT22;8790;53.590;10.002;2022-12-18T01:31:11;-2.30;99.90
17346;DHT22;8790;53.590;10.002;2022-12-18T01:33:43;-2.30;99.90
17346;DHT22;8790;53.590;10.002;2022-12-18T01:36:18;-2.30;99.90
17346;DHT22;8790;53.590;10.002;2022-12-18T01:38:51;-2.30;99.90
17346;DHT22;8790;53.590;10.002;2022-12-18T01:41:27;-2.30;99.90
17346;DHT22;8790;53.590;10.002;2022-12-18T01:44:47;-2.40;99.90
17346;DHT22;8790;53.590;10.002;2022-12-18T01:47:25;-2.30;99.90
17346;DHT22;8790;53.590;10.002;2022-12-18T01:50:00;-2.30;99.90
17346;DHT22;8790;53.590;10.002;2022-12-18T01:52:35;-2.40;99.90
17346;DHT22;8790;53.590;10.002;2022-12-18T01:55:11;-2.40;99.90
17346;DHT22;8790;53.590;10.002;2022-12-18T01:57:47;-2.40;99.90
17346;DHT22;8790;53.590;10.002;2022-12-18T02:00:22;-2.50;99.90
17346;DHT22;8790;53.590;10.002;2022-12-18T02:02:55;-2.50;99.90
17346;DHT22;8790;53.590;10.002;2022-12-18T02:05:38;-2.50;99.90
17346;DHT22;8790;53.590;10.002;2022-12-18T02:08:16;-2.60;99.90
17346;DHT22;8790;53.590;10.002;2022-12-18T02:10:57;-2.50;99.90
17346;DHT22;8790;53.590;10.002;2022-12-18T02:13:38;-2.60;99.90
17346;DHT22;8790;53.590;10.002;2022-12-18T02:16:19;-2.70;99.90
17346;DHT22;8790;53.590;10.002;2022-12-18T02:18:57;-2.60;99.90
17346;DHT22;8790;53.590;10.002;2022-12-18T02:21:36;-2.70;99.90
17346;DHT22;8790;53.590;10.002;2022-12-18T02:24:21;-2.70;99.90
17346;DHT22;8790;53.590;10.002;2022-12-18T02:26:58;-2.70;99.90
17346;DHT22;8790;53.590;10.002;2022-12-18T02:29:36;-2.60;99.90
17346;DHT22;8790;53.590;10.002;2022-12-18T02:32:13;-2.70;99.90
17346;DHT22;8790;53.590;10.002;2022-12-18T02:34:46;-2.70;99.90
17346;DHT22;8790;53.590;10.002;2022-12-18T02:37:21;-2.60;99.90
17346;DHT22;8790;53.590;10.002;2022-12-18T02:39:55;-2.60;99.90
17346;DHT22;8790;53.590;10.002;2022-12-18T02:42:29;-2.70;99.90
17346;DHT22;8790;53.590;10.002;2022-12-18T02:45:03;-2.70;99.90
17346;DHT22;8790;53.590;10.002;2022-12-18T02:47:38;-2.60;99.90
17346;DHT22;8790;53.590;10.002;2022-12-18T02:50:18;-2.60;99.90
17346;DHT22;8790;53.590;10.002;2022-12-18T02:53:06;-2.60;99.90
17346;DHT22;8790;53.590;10.002;2022-12-18T02:55:52;-2.60;99.90
17346;DHT22;8790;53.590;10.002;2022-12-18T02:58:32;-2.60;99.90
17346;DHT22;8790;53.590;10.002;2022-12-18T03:01:16;-2.60;99.90
17346;DHT22;8790;53.590;10.002;2022-12-18T03:03:55;-2.60;99.90
17346;DHT22;8790;53.590;10.002;2022-12-18T03:06:32;-2.70;99.90
17346;DHT22;8790;53.590;10.002;2022-12-18T03:09:07;-2.70;99.90
17346;DHT22;8790;53.590;10.002;2022-12-18T03:11:43;-2.70;99.90
17346;DHT22;8790;53.590;10.002;2022-12-18T03:14:38;-2.60;99.90
17346;DHT22;8790;53.590;10.002;2022-12-18T03:17:16;-2.70;99.90
17346;DHT22;8790;53.590;10.002;2022-12-18T03:19:52;-2.70;99.90
17346;DHT22;8790;53.590;10.002;2022-12-18T03:22:27;-2.70;99.90
17346;DHT22;8790;53.590;10.002;2022-12-18T03:25:03;-2.70;99.90
17346;DHT22;8790;53.590;10.002;2022-12-18T03:27:38;-2.70;99.90
17346;DHT22;8790;53.590;10.002;2022-12-18T03:30:17;-2.70;99.90
17346;DHT22;8790;53.590;10.002;2022-12-18T03:32:53;-2.80;99.90
17346;DHT22;8790;53.590;10.002;2022-12-18T03:35:29;-2.80;99.90
17346;DHT22;8790;53.590;10.002;2022-12-18T03:38:03;-2.80;99.90
17346;DHT22;8790;53.590;10.002;2022-12-18T03:40:45;-2.80;99.90
17346;DHT22;8790;53.590;10.002;2022-12-18T03:43:27;-2.70;99.90
17346;DHT22;8790;53.590;10.002;2022-12-18T03:46:04;-2.80;99.90
17346;DHT22;8790;53.590;10.002;2022-12-18T03:48:42;-2.80;99.90
17346;DHT22;8790;53.590;10.002;2022-12-18T03:51:24;-2.80;99.90
17346;DHT22;8790;53.590;10.002;2022-12-18T03:53:59;-2.90;99.90
17346;DHT22;8790;53.590;10.002;2022-12-18T03:56:42;-3.00;99.90
17346;DHT22;8790;53.590;10.002;2022-12-18T03:59:16;-3.00;99.90
17346;DHT22;8790;53.590;10.002;2022-12-18T04:01:52;-3.00;99.90
17346;DHT22;8790;53.590;10.002;2022-12-18T04:04:27;-2.90;99.90
17346;DHT22;8790;53.590;10.002;2022-12-18T04:07:04;-2.90;99.90
17346;DHT22;8790;53.590;10.002;2022-12-18T04:09:39;-3.00;99.90
17346;DHT22;8790;53.590;10.002;2022-12-18T04:12:11;-3.00;99.90
17346;DHT22;8790;53.590;10.002;2022-12-18T04:14:44;-3.00;99.90
17346;DHT22;8790;53.590;10.002;2022-12-18T04:17:17;-3.10;99.90
17346;DHT22;8790;53.590;10.002;2022-12-18T04:19:49;-3.00;99.90
17346;DHT22;8790;53.590;10.002;2022-12-18T04:22:21;-3.00;99.90
17346;DHT22;8790;53.590;10.002;2022-12-18T04:24:58;-3.00;99.90
17346;DHT22;8790;53.590;10.002;2022-12-18T04:27:37;-3.10;99.90
17346;DHT22;8790;53.590;10.002;2022-12-18T04:30:10;-3.10;99.90
17346;DHT22;8790;53.590;10.002;2022-12-18T04:32:43;-3.10;99.90
17346;DHT22;8790;53.590;10.002;2022-12-18T04:35:15;-3.10;99.90
17346;DHT22;8790;53.590;10.002;2022-12-18T04:37:48;-3.10;99.90
17346;DHT22;8790;53.590;10.002;2022-12-18T04:40:20;-3.20;99.90
17346;DHT22;8790;53.590;10.002;2022-12-18T04:42:53;-3.20;99.90
17346;DHT22;8790;53.590;10.002;2022-12-18T04:45:24;-3.10;99.90
17346;DHT22;8790;53.590;10.002;2022-12-18T04:47:58;-3.10;99.90
17346;DHT22;8790;53.590;10.002;2022-12-18T04:50:30;-3.20;99.90
17346;DHT22;8790;53.590;10.002;2022-12-18T04:53:02;-3.10;99.90
17346;DHT22;8790;53.590;10.002;2022-12-18T04:55:34;-3.10;99.90
17346;DHT22;8790;53.590;10.002;2022-12-18T04:58:06;-3.20;99.90
17346;DHT22;8790;53.590;10.002;2022-12-18T05:00:38;-3.30;99.90
17346;DHT22;8790;53.590;10.002;2022-12-18T05:03:11;-3.30;99.90
17346;DHT22;8790;53.590;10.002;2022-12-18T05:05:42;-3.20;99.90
17346;DHT22;8790;53.590;10.002;2022-12-18T05:08:14;-3.20;99.90
17346;DHT22;8790;53.590;10.002;2022-12-18T05:10:46;-3.20;99.90
17346;DHT22;8790;53.590;10.002;2022-12-18T05:13:18;-3.30;99.90
17346;DHT22;8790;53.590;10.002;2022-12-18T05:15:51;-3.30;99.90
17346;DHT22;8790;53.590;10.002;2022-12-18T05:18:25;-3.40;99.90
17346;DHT22;8790;53.590;10.002;2022-12-18T05:20:57;-3.40;99.90
17346;DHT22;8790;53.590;10.002;2022-12-18T05:23:29;-3.40;99.90
17346;DHT22;8790;53.590;10.002;2022-12-18T05:26:03;-3.40;99.90
17346;DHT22;8790;53.590;10.002;2022-12-18T05:28:36;-3.40;99.90
17346;DHT22;8790;53.590;10.002;2022-12-18T05:31:09;-3.50;99.90
17346;DHT22;8790;53.590;10.002;2022-12-18T05:33:43;-3.50;99.90
17346;DHT22;8790;53.590;10.002;2022-12-18T05:36:14;-3.50;99.90
17346;DHT22;8790;53.590;10.002;2022-12-18T05:38:46;-3.60;99.90
17346;DHT22;8790;53.590;10.002;2022-12-18T05:41:18;-3.50;99.90
17346;DHT22;8790;53.590;10.002;2022-12-18T05:43:50;-3.50;99.90
17346;DHT22;8790;53.590;10.002;2022-12-18T05:46:21;-3.40;99.90
17346;DHT22;8790;53.590;10.002;2022-12-18T05:48:59;-3.60;99.90
17346;DHT22;8790;53.590;10.002;2022-12-18T05:51:30;-3.60;99.90
17346;DHT22;8790;53.590;10.002;2022-12-18T05:54:02;-3.50;99.90
17346;DHT22;8790;53.590;10.002;2022-12-18T05:56:34;-3.40;99.90
17346;DHT22;8790;53.590;10.002;2022-12-18T05:59:06;-3.40;99.90
17346;DHT22;8790;53.590;10.002;2022-12-18T06:01:37;-3.60;99.90
17346;DHT22;8790;53.590;10.002;2022-12-18T06:04:11;-3.60;99.90
17346;DHT22;8790;53.590;10.002;2022-12-18T06:06:42;-3.60;99.90
17346;DHT22;8790;53.590;10.002;2022-12-18T06:09:14;-3.60;99.90
17346;DHT22;8790;53.590;10.002;2022-12-18T06:11:46;-3.60;99.90
17346;DHT22;8790;53.590;10.002;2022-12-18T06:14:18;-3.60;99.90
17346;DHT22;8790;53.590;10.002;2022-12-18T06:16:50;-3.60;99.90
17346;DHT22;8790;53.590;10.002;2022-12-18T06:19:23;-3.60;99.90
17346;DHT22;8790;53.590;10.002;2022-12-18T06:21:55;-3.50;99.90
17346;DHT22;8790;53.590;10.002;2022-12-18T06:24:29;-3.50;99.90
17346;DHT22;8790;53.590;10.002;2022-12-18T06:27:01;-3.50;99.90
17346;DHT22;8790;53.590;10.002;2022-12-18T06:29:33;-3.50;99.90
17346;DHT22;8790;53.590;10.002;2022-12-18T06:32:05;-3.50;99.90
17346;DHT22;8790;53.590;10.002;2022-12-18T06:34:38;-3.50;99.90
17346;DHT22;8790;53.590;10.002;2022-12-18T06:37:09;-3.60;99.90
17346;DHT22;8790;53.590;10.002;2022-12-18T06:39:41;-3.60;99.90
17346;DHT22;8790;53.590;10.002;2022-12-18T06:42:13;-3.70;99.90
17346;DHT22;8790;53.590;10.002;2022-12-18T06:44:45;-3.70;99.90
17346;DHT22;8790;53.590;10.002;2022-12-18T06:47:17;-3.60;99.90
17346;DHT22;8790;53.590;10.002;2022-12-18T06:49:50;-3.70;99.90
17346;DHT22;8790;53.590;10.002;2022-12-18T06:52:22;-3.70;99.90
17346;DHT22;8790;53.590;10.002;2022-12-18T06:54:54;-3.70;99.90
17346;DHT22;8790;53.590;10.002;2022-12-18T06:57:25;-3.70;99.90
17346;DHT22;8790;53.590;10.002;2022-12-18T06:59:57;-3.70;99.90
17346;DHT22;8790;53.590;10.002;2022-12-18T07:02:29;-3.60;99.90
17346;DHT22;8790;53.590;10.002;2022-12-18T07:05:02;-3.70;99.90
17346;DHT22;8790;53.590;10.002;2022-12-18T07:07:34;-3.70;99.90
17346;DHT22;8790;53.590;10.002;2022-12-18T07:10:07;-3.70;99.90
17346;DHT22;8790;53.590;10.002;2022-12-18T07:12:38;-3.80;99.90
17346;DHT22;8790;53.590;10.002;2022-12-18T07:15:11;-3.80;99.90
17346;DHT22;8790;53.590;10.002;2022-12-18T07:17:43;-3.90;99.90
17346;DHT22;8790;53.590;10.002;2022-12-18T07:20:16;-3.80;99.90
17346;DHT22;8790;53.590;10.002;2022-12-18T07:22:47;-3.90;99.90
17346;DHT22;8790;53.590;10.002;2022-12-18T07:25:19;-3.90;99.90
17346;DHT22;8790;53.590;10.002;2022-12-18T07:27:51;-3.90;99.90
17346;DHT22;8790;53.590;10.002;2022-12-18T07:30:23;-3.90;99.90
17346;DHT22;8790;53.590;10.002;2022-12-18T07:32:54;-3.90;99.90
17346;DHT22;8790;53.590;10.002;2022-12-18T07:35:27;-3.90;99.90
17346;DHT22;8790;53.590;10.002;2022-12-18T07:37:59;-3.80;99.90
17346;DHT22;8790;53.590;10.002;2022-12-18T07:40:31;-3.80;99.90
17346;DHT22;8790;53.590;10.002;2022-12-18T07:43:03;-3.80;99.90
17346;DHT22;8790;53.590;10.002;2022-12-18T07:45:34;-3.80;99.90
17346;DHT22;8790;53.590;10.002;2022-12-18T07:48:06;-3.80;99.90
17346;DHT22;8790;53.590;10.002;2022-12-18T07:50:39;-3.80;99.90
17346;DHT22;8790;53.590;10.002;2022-12-18T07:53:11;-3.80;99.90
17346;DHT22;8790;53.590;10.002;2022-12-18T07:55:43;-3.80;99.90
17346;DHT22;8790;53.590;10.002;2022-12-18T07:58:14;-3.80;99.90
17346;DHT22;8790;53.590;10.002;2022-12-18T08:00:46;-3.80;99.90
17346;DHT22;8790;53.590;10.002;2022-12-18T08:03:18;-3.70;99.90
17346;DHT22;8790;53.590;10.002;2022-12-18T08:05:51;-3.70;99.90
17346;DHT22;8790;53.590;10.002;2022-12-18T08:08:23;-3.70;99.90
17346;DHT22;8790;53.590;10.002;2022-12-18T08:10:55;-3.70;99.90
17346;DHT22;8790;53.590;10.002;2022-12-18T08:13:28;-3.80;99.90
17346;DHT22;8790;53.590;10.002;2022-12-18T08:16:01;-3.80;99.90
17346;DHT22;8790;53.590;10.002;2022-12-18T08:18:33;-3.80;99.90
17346;DHT22;8790;53.590;10.002;2022-12-18T08:21:10;-3.80;99.90
17346;DHT22;8790;53.590;10.002;2022-12-18T08:23:43;-3.80;99.90
17346;DHT22;8790;53.590;10.002;2022-12-18T08:26:15;-3.80;99.90
17346;DHT22;8790;53.590;10.002;2022-12-18T08:28:46;-3.80;99.90
17346;DHT22;8790;53.590;10.002;2022-12-18T08:31:18;-3.80;99.90
17346;DHT22;8790;53.590;10.002;2022-12-18T08:33:51;-3.80;99.90
17346;DHT22;8790;53.590;10.002;2022-12-18T08:36:24;-3.70;99.90
17346;DHT22;8790;53.590;10.002;2022-12-18T08:38:56;-3.70;99.90
17346;DHT22;8790;53.590;10.002;2022-12-18T08:41:28;-3.70;99.90
17346;DHT22;8790;53.590;10.002;2022-12-18T08:44:00;-3.70;99.90
17346;DHT22;8790;53.590;10.002;2022-12-18T08:46:49;-3.70;99.90
17346;DHT22;8790;53.590;10.002;2022-12-18T08:49:21;-3.70;99.90
17346;DHT22;8790;53.590;10.002;2022-12-18T08:51:55;-3.60;99.90
17346;DHT22;8790;53.590;10.002;2022-12-18T08:54:28;-3.60;99.90
17346;DHT22;8790;53.590;10.002;2022-12-18T08:57:00;-3.50;99.90
17346;DHT22;8790;53.590;10.002;2022-12-18T08:59:31;-3.60;99.90
17346;DHT22;8790;53.590;10.002;2022-12-18T09:02:03;-3.60;99.90
17346;DHT22;8790;53.590;10.002;2022-12-18T09:04:35;-3.60;99.90
17346;DHT22;8790;53.590;10.002;2022-12-18T09:07:08;-3.60;99.90
17346;DHT22;8790;53.590;10.002;2022-12-18T09:09:39;-3.50;99.90
17346;DHT22;8790;53.590;10.002;2022-12-18T09:12:11;-3.50;99.90
17346;DHT22;8790;53.590;10.002;2022-12-18T09:14:43;-3.50;99.90
17346;DHT22;8790;53.590;10.002;2022-12-18T09:17:15;-3.50;99.90
17346;DHT22;8790;53.590;10.002;2022-12-18T09:19:46;-3.50;99.90
17346;DHT22;8790;53.590;10.002;2022-12-18T09:22:20;-3.40;99.90
17346;DHT22;8790;53.590;10.002;2022-12-18T09:24:52;-3.40;99.90
17346;DHT22;8790;53.590;10.002;2022-12-18T09:27:24;-3.40;99.90
17346;DHT22;8790;53.590;10.002;2022-12-18T09:29:56;-3.40;99.90
17346;DHT22;8790;53.590;10.002;2022-12-18T09:32:27;-3.40;99.90
17346;DHT22;8790;53.590;10.002;2022-12-18T09:34:59;-3.40;99.90
17346;DHT22;8790;53.590;10.002;2022-12-18T09:37:33;-3.40;99.90
17346;DHT22;8790;53.590;10.002;2022-12-18T09:40:06;-3.40;99.90
17346;DHT22;8790;53.590;10.002;2022-12-18T09:42:37;-3.40;99.90
17346;DHT22;8790;53.590;10.002;2022-12-18T09:45:13;-3.30;99.90
17346;DHT22;8790;53.590;10.002;2022-12-18T09:47:47;-3.30;99.90
17346;DHT22;8790;53.590;10.002;2022-12-18T09:50:24;-3.20;99.90
17346;DHT22;8790;53.590;10.002;2022-12-18T09:53:05;-3.20;99.90
17346;DHT22;8790;53.590;10.002;2022-12-18T09:55:40;-3.10;99.90
17346;DHT22;8790;53.590;10.002;2022-12-18T09:58:16;-3.20;99.90
17346;DHT22;8790;53.590;10.002;2022-12-18T10:00:51;-3.10;99.90
17346;DHT22;8790;53.590;10.002;2022-12-18T10:03:23;-3.00;99.90
17346;DHT22;8790;53.590;10.002;2022-12-18T10:06:01;-3.00;99.90
17346;DHT22;8790;53.590;10.002;2022-12-18T10:08:40;-3.00;99.90
17346;DHT22;8790;53.590;10.002;2022-12-18T10:11:32;-2.90;99.90
17346;DHT22;8790;53.590;10.002;2022-12-18T10:14:13;-2.90;99.90
17346;DHT22;8790;53.590;10.002;2022-12-18T10:16:53;-2.80;99.90
17346;DHT22;8790;53.590;10.002;2022-12-18T10:19:36;-2.80;99.90
17346;DHT22;8790;53.590;10.002;2022-12-18T10:22:15;-2.80;99.90
17346;DHT22;8790;53.590;10.002;2022-12-18T10:24:55;-2.80;99.90
17346;DHT22;8790;53.590;10.002;2022-12-18T10:27:31;-2.80;99.90
17346;DHT22;8790;53.590;10.002;2022-12-18T10:30:12;-2.70;99.90
17346;DHT22;8790;53.590;10.002;2022-12-18T10:32:45;-2.60;99.90
17346;DHT22;8790;53.590;10.002;2022-12-18T10:35:18;-2.70;99.90
17346;DHT22;8790;53.590;10.002;2022-12-18T10:38:02;-2.60;99.90
17346;DHT22;8790;53.590;10.002;2022-12-18T10:40:48;-2.60;99.90
17346;DHT22;8790;53.590;10.002;2022-12-18T10:43:23;-2.50;99.90
17346;DHT22;8790;53.590;10.002;2022-12-18T10:46:01;-2.50;99.90
17346;DHT22;8790;53.590;10.002;2022-12-18T10:48:36;-2.50;99.90
17346;DHT22;8790;53.590;10.002;2022-12-18T10:51:08;-2.40;99.90
17346;DHT22;8790;53.590;10.002;2022-12-18T10:53:41;-2.40;99.90
17346;DHT22;8790;53.590;10.002;2022-12-18T10:56:20;-2.40;99.90
17346;DHT22;8790;53.590;10.002;2022-12-18T10:58:57;-2.40;99.90
17346;DHT22;8790;53.590;10.002;2022-12-18T11:01:34;-2.30;99.90
17346;DHT22;8790;53.590;10.002;2022-12-18T11:04:19;-2.30;99.90
17346;DHT22;8790;53.590;10.002;2022-12-18T11:06:57;-2.40;99.90
17346;DHT22;8790;53.590;10.002;2022-12-18T11:09:30;-2.40;99.90
17346;DHT22;8790;53.590;10.002;2022-12-18T11:12:15;-2.30;99.90
17346;DHT22;8790;53.590;10.002;2022-12-18T11:14:48;-2.30;99.90
17346;DHT22;8790;53.590;10.002;2022-12-18T11:17:22;-2.20;99.90
17346;DHT22;8790;53.590;10.002;2022-12-18T11:19:57;-2.20;99.90
17346;DHT22;8790;53.590;10.002;2022-12-18T11:22:31;-2.10;99.90
17346;DHT22;8790;53.590;10.002;2022-12-18T11:25:05;-2.10;99.90
17346;DHT22;8790;53.590;10.002;2022-12-18T11:27:39;-2.00;99.90
17346;DHT22;8790;53.590;10.002;2022-12-18T11:30:23;-2.00;99.90
17346;DHT22;8790;53.590;10.002;2022-12-18T11:33:04;-1.80;99.90
17346;DHT22;8790;53.590;10.002;2022-12-18T11:35:42;-1.80;99.90
17346;DHT22;8790;53.590;10.002;2022-12-18T11:38:20;-1.80;99.90
17346;DHT22;8790;53.590;10.002;2022-12-18T11:40:56;-1.90;99.90
17346;DHT22;8790;53.590;10.002;2022-12-18T11:43:35;-2.00;99.90
17346;DHT22;8790;53.590;10.002;2022-12-18T11:46:13;-2.00;99.90
17346;DHT22;8790;53.590;10.002;2022-12-18T11:48:48;-1.90;99.90
17346;DHT22;8790;53.590;10.002;2022-12-18T11:51:26;-1.80;99.90
17346;DHT22;8790;53.590;10.002;2022-12-18T11:54:00;-1.80;99.90
17346;DHT22;8790;53.590;10.002;2022-12-18T11:56:47;-1.80;99.90
17346;DHT22;8790;53.590;10.002;2022-12-18T11:59:29;-1.90;99.90
17346;DHT22;8790;53.590;10.002;2022-12-18T12:02:17;-1.80;99.90
17346;DHT22;8790;53.590;10.002;2022-12-18T12:07:55;-1.80;99.90
17346;DHT22;8790;53.590;10.002;2022-12-18T12:10:39;-1.80;99.90
17346;DHT22;8790;53.590;10.002;2022-12-18T12:13:28;-1.80;99.90
17346;DHT22;8790;53.590;10.002;2022-12-18T12:16:31;-1.70;99.90
17346;DHT22;8790;53.590;10.002;2022-12-18T12:19:39;-1.60;99.90
17346;DHT22;8790;53.590;10.002;2022-12-18T12:22:47;-1.60;99.90
17346;DHT22;8790;53.590;10.002;2022-12-18T12:25:31;-1.60;99.90
17346;DHT22;8790;53.590;10.002;2022-12-18T12:31:38;-1.50;99.90
17346;DHT22;8790;53.590;10.002;2022-12-18T12:34:18;-1.50;99.90
17346;DHT22;8790;53.590;10.002;2022-12-18T12:37:10;-1.50;99.90
17346;DHT22;8790;53.590;10.002;2022-12-18T12:39:45;-1.40;99.90
17346;DHT22;8790;53.590;10.002;2022-12-18T12:42:21;-1.40;99.90
17346;DHT22;8790;53.590;10.002;2022-12-18T12:45:16;-1.40;99.90
17346;DHT22;8790;53.590;10.002;2022-12-18T12:47:51;-1.40;99.90
17346;DHT22;8790;53.590;10.002;2022-12-18T12:50:24;-1.40;99.90
17346;DHT22;8790;53.590;10.002;2022-12-18T12:52:57;-1.40;99.90
17346;DHT22;8790;53.590;10.002;2022-12-18T12:55:29;-1.30;99.90
17346;DHT22;8790;53.590;10.002;2022-12-18T12:58:05;-1.30;99.90
17346;DHT22;8790;53.590;10.002;2022-12-18T13:00:41;-1.30;99.90
17346;DHT22;8790;53.590;10.002;2022-12-18T13:03:23;-1.30;99.90
17346;DHT22;8790;53.590;10.002;2022-12-18T13:06:02;-1.30;99.90
17346;DHT22;8790;53.590;10.002;2022-12-18T13:08:52;-1.30;99.90
17346;DHT22;8790;53.590;10.002;2022-12-18T13:11:34;-1.00;99.90
17346;DHT22;8790;53.590;10.002;2022-12-18T13:14:28;-1.00;99.90
17346;DHT22;8790;53.590;10.002;2022-12-18T13:17:30;-1.10;99.90
17346;DHT22;8790;53.590;10.002;2022-12-18T13:20:11;-1.10;99.90
17346;DHT22;8790;53.590;10.002;2022-12-18T13:22:45;-1.10;99.90
17346;DHT22;8790;53.590;10.002;2022-12-18T13:25:32;-1.20;99.90
17346;DHT22;8790;53.590;10.002;2022-12-18T13:28:07;-1.10;99.90
17346;DHT22;8790;53.590;10.002;2022-12-18T13:30:49;-1.20;99.90
17346;DHT22;8790;53.590;10.002;2022-12-18T13:33:48;-1.20;99.90
17346;DHT22;8790;53.590;10.002;2022-12-18T13:36:30;-1.30;99.90
17346;DHT22;8790;53.590;10.002;2022-12-18T13:39:33;-1.20;99.90
17346;DHT22;8790;53.590;10.002;2022-12-18T13:45:40;-1.20;99.90
17346;DHT22;8790;53.590;10.002;2022-12-18T13:48:21;-1.20;99.90
17346;DHT22;8790;53.590;10.002;2022-12-18T13:50:57;-1.30;99.90
17346;DHT22;8790;53.590;10.002;2022-12-18T13:53:58;-1.20;99.90
17346;DHT22;8790;53.590;10.002;2022-12-18T13:56:32;-1.30;99.90
17346;DHT22;8790;53.590;10.002;2022-12-18T13:59:20;-1.30;99.90
17346;DHT22;8790;53.590;10.002;2022-12-18T14:01:54;-1.30;99.90
17346;DHT22;8790;53.590;10.002;2022-12-18T14:04:27;-1.30;99.90
17346;DHT22;8790;53.590;10.002;2022-12-18T14:07:03;-1.30;99.90
17346;DHT22;8790;53.590;10.002;2022-12-18T14:09:42;-1.30;99.90
17346;DHT22;8790;53.590;10.002;2022-12-18T14:12:18;-1.30;99.90
17346;DHT22;8790;53.590;10.002;2022-12-18T14:15:20;-1.30;99.90
17346;DHT22;8790;53.590;10.002;2022-12-18T14:17:57;-1.40;99.90
17346;DHT22;8790;53.590;10.002;2022-12-18T14:20:31;-1.40;99.90
17346;DHT22;8790;53.590;10.002;2022-12-18T14:23:03;-1.40;99.90
17346;DHT22;8790;53.590;10.002;2022-12-18T14:25:36;-1.50;99.90
17346;DHT22;8790;53.590;10.002;2022-12-18T14:28:13;-1.50;99.90
17346;DHT22;8790;53.590;10.002;2022-12-18T14:30:46;-1.50;99.90
17346;DHT22;8790;53.590;10.002;2022-12-18T14:33:18;-1.50;99.90
17346;DHT22;8790;53.590;10.002;2022-12-18T14:35:56;-1.50;99.90
17346;DHT22;8790;53.590;10.002;2022-12-18T14:38:32;-1.60;99.90
17346;DHT22;8790;53.590;10.002;2022-12-18T14:41:10;-1.50;99.90
17346;DHT22;8790;53.590;10.002;2022-12-18T14:43:43;-1.60;99.90
17346;DHT22;8790;53.590;10.002;2022-12-18T14:46:30;-1.60;99.90
17346;DHT22;8790;53.590;10.002;2022-12-18T14:49:16;-1.60;99.90
17346;DHT22;8790;53.590;10.002;2022-12-18T14:51:50;-1.60;99.90
17346;DHT22;8790;53.590;10.002;2022-12-18T14:54:24;-1.70;99.90
17346;DHT22;8790;53.590;10.002;2022-12-18T14:57:00;-1.60;99.90
17346;DHT22;8790;53.590;10.002;2022-12-18T14:59:32;-1.60;99.90
17346;DHT22;8790;53.590;10.002;2022-12-18T15:02:12;-1.60;99.90
17346;DHT22;8790;53.590;10.002;2022-12-18T15:04:47;-1.70;99.90
17346;DHT22;8790;53.590;10.002;2022-12-18T15:07:21;-1.70;99.90
17346;DHT22;8790;53.590;10.002;2022-12-18T15:10:08;-1.70;99.90
17346;DHT22;8790;53.590;10.002;2022-12-18T15:12:43;-1.70;99.90
17346;DHT22;8790;53.590;10.002;2022-12-18T15:18:27;-1.70;99.90
17346;DHT22;8790;53.590;10.002;2022-12-18T15:21:08;-1.70;99.90
17346;DHT22;8790;53.590;10.002;2022-12-18T15:23:47;-1.70;99.90
17346;DHT22;8790;53.590;10.002;2022-12-18T15:26:20;-1.80;99.90
17346;DHT22;8790;53.590;10.002;2022-12-18T15:28:55;-1.80;99.90
17346;DHT22;8790;53.590;10.002;2022-12-18T15:31:30;-1.80;99.90
17346;DHT22;8790;53.590;10.002;2022-12-18T15:34:13;-1.90;99.90
17346;DHT22;8790;53.590;10.002;2022-12-18T15:36:45;-1.80;99.90
17346;DHT22;8790;53.590;10.002;2022-12-18T15:39:17;-1.80;99.90
17346;DHT22;8790;53.590;10.002;2022-12-18T15:41:49;-1.80;99.90
17346;DHT22;8790;53.590;10.002;2022-12-18T15:44:40;-1.90;99.90
17346;DHT22;8790;53.590;10.002;2022-12-18T15:47:12;-1.80;99.90
17346;DHT22;8790;53.590;10.002;2022-12-18T15:49:44;-1.80;99.90
17346;DHT22;8790;53.590;10.002;2022-12-18T15:52:16;-1.80;99.90
17346;DHT22;8790;53.590;10.002;2022-12-18T15:54:56;-1.80;99.90
17346;DHT22;8790;53.590;10.002;2022-12-18T15:57:45;-1.80;99.90
17346;DHT22;8790;53.590;10.002;2022-12-18T16:00:19;-1.90;99.90
17346;DHT22;8790;53.590;10.002;2022-12-18T16:02:51;-1.80;99.90
17346;DHT22;8790;53.590;10.002;2022-12-18T16:05:23;-1.80;99.90
17346;DHT22;8790;53.590;10.002;2022-12-18T16:07:55;-1.70;99.90
17346;DHT22;8790;53.590;10.002;2022-12-18T16:10:27;-1.70;99.90
17346;DHT22;8790;53.590;10.002;2022-12-18T16:12:59;-1.80;99.90
17346;DHT22;8790;53.590;10.002;2022-12-18T16:15:32;-1.80;99.90
17346;DHT22;8790;53.590;10.002;2022-12-18T16:18:04;-1.80;99.90
17346;DHT22;8790;53.590;10.002;2022-12-18T16:20:35;-1.70;99.90
17346;DHT22;8790;53.590;10.002;2022-12-18T16:23:07;-1.80;99.90
17346;DHT22;8790;53.590;10.002;2022-12-18T16:25:39;-1.80;99.90
17346;DHT22;8790;53.590;10.002;2022-12-18T16:28:11;-1.80;99.90
17346;DHT22;8790;53.590;10.002;2022-12-18T16:30:44;-1.80;99.90
17346;DHT22;8790;53.590;10.002;2022-12-18T16:33:16;-1.70;99.90
17346;DHT22;8790;53.590;10.002;2022-12-18T16:35:51;-1.70;99.90
17346;DHT22;8790;53.590;10.002;2022-12-18T16:38:23;-1.80;99.90